Terminal Aerodrome Forecast
Issued by NWS Sioux Falls, SD

Home | Current Version | Previous Version | Text Only | Print | Product List | Glossary On
Versions: 1 2 3 4 5 6 7 8 9
235
FTUS43 KFSD 202320
TAFFSD
TAF
KFSD 202320Z 2100/2124 33010KT P6SM BKN030
     FM210200 34006KT P6SM SKC
     FM210500 VRB04KT P6SM SKC
     FM211500 07009KT P6SM SCT050=

USA.gov is the U.S. government's official web portal to all federal, state and local government web resources and services.